Time;durP1;ratioP1;P1;durP2;ratioP2;P2;SDS_P1;SDS_P2;PMS_P1;PMS_P2;Temp;Humidity;BMP_temperature;BMP_pressure;BME280_temperature;BME280_humidity;BME280_pressure;Samples;Min_cycle;Max_cycle;Signal;HPM_P1;HPM_P2
2021/07/06 00:01:05;;;;;;;5.10;3.60;;;26.00;99.90;;;;;;5051014;28;20209;-95
2021/07/06 00:03:38;;;;;;;4.37;3.30;;;26.40;99.90;;;;;;5047767;28;20233;-95
2021/07/06 00:06:12;;;;;;;3.97;3.30;;;26.80;99.90;;;;;;5046407;28;20225;-94
2021/07/06 00:08:45;;;;;;;3.77;3.23;;;26.70;99.90;;;;;;5047233;28;20666;-94
2021/07/06 00:11:34;;;;;;;3.07;2.77;;;26.80;99.90;;;;;;5046358;28;20212;-95
2021/07/06 00:14:07;;;;;;;5.23;3.13;;;26.80;99.90;;;;;;5047718;28;20205;-96
2021/07/06 00:16:40;;;;;;;4.80;3.07;;;26.90;99.90;;;;;;5046614;28;20217;-96
2021/07/06 00:19:14;;;;;;;6.27;3.13;;;26.70;99.90;;;;;;5045654;28;20213;-94
2021/07/06 00:21:45;;;;;;;3.20;2.90;;;26.90;99.90;;;;;;5025792;28;20217;-95
2021/07/06 00:24:18;;;;;;;4.47;3.13;;;27.00;99.90;;;;;;5026956;28;20256;-95
2021/07/06 00:26:52;;;;;;;5.27;3.03;;;26.90;99.90;;;;;;5048886;28;20200;-95
2021/07/06 00:29:26;;;;;;;3.50;3.20;;;26.70;99.90;;;;;;5052635;28;20719;-95
2021/07/06 00:31:58;;;;;;;4.17;3.27;;;26.50;99.90;;;;;;5043695;28;20236;-95
2021/07/06 00:34:41;;;;;;;5.17;3.23;;;26.60;99.90;;;;;;5032818;28;20216;-94
2021/07/06 00:37:26;;;;;;;3.67;3.20;;;26.20;99.90;;;;;;5034921;28;20277;-94
2021/07/06 00:39:59;;;;;;;5.87;3.47;;;26.30;99.90;;;;;;5044182;28;20209;-94
2021/07/06 00:42:48;;;;;;;4.63;3.13;;;26.40;99.90;;;;;;5046893;28;20232;-93
2021/07/06 00:45:22;;;;;;;10.60;3.40;;;26.20;99.90;;;;;;5057645;28;20200;-93
2021/07/06 00:47:54;;;;;;;3.60;3.30;;;26.00;99.90;;;;;;5043755;28;20211;-95
2021/07/06 00:50:26;;;;;;;5.57;3.60;;;26.30;99.90;;;;;;5065329;28;20272;-93
2021/07/06 00:53:02;;;;;;;3.67;3.27;;;26.50;99.90;;;;;;5067387;28;20564;-94
2021/07/06 00:55:37;;;;;;;5.83;3.30;;;26.70;99.90;;;;;;5066094;28;20200;-94
2021/07/06 00:58:13;;;;;;;8.30;3.73;;;27.30;99.90;;;;;;5071490;28;20189;-93
2021/07/06 01:00:47;;;;;;;4.60;3.20;;;27.80;99.90;;;;;;5057947;28;20231;-94
2021/07/06 01:03:23;;;;;;;4.97;3.10;;;27.30;99.90;;;;;;5074558;28;20311;-93
2021/07/06 01:08:48;;;;;;;4.97;3.10;;;28.40;99.90;;;;;;5038437;28;20214;-93
2021/07/06 01:11:21;;;;;;;4.43;3.27;;;28.80;99.90;;;;;;5042389;28;20243;-94
2021/07/06 01:13:55;;;;;;;5.33;3.40;;;29.10;99.90;;;;;;5045869;28;20213;-93
2021/07/06 01:16:27;;;;;;;5.57;3.07;;;29.10;99.90;;;;;;5042361;28;20221;-95
2021/07/06 01:19:02;;;;;;;4.47;2.77;;;29.20;99.90;;;;;;5043577;28;20228;-94
2021/07/06 01:21:36;;;;;;;7.80;3.00;;;29.70;99.90;;;;;;5044455;28;20212;-94
2021/07/06 01:24:41;;;;;;;4.93;3.30;;;29.80;99.90;;;;;;5039232;28;20236;-94
2021/07/06 01:27:14;;;;;;;5.83;3.23;;;29.00;99.90;;;;;;5043322;28;20263;-93
2021/07/06 01:32:48;;;;;;;5.13;2.90;;;29.70;99.90;;;;;;5042179;28;20209;-94
2021/07/06 01:35:23;;;;;;;5.80;3.07;;;29.80;99.90;;;;;;5046513;28;20249;-95
2021/07/06 01:37:56;;;;;;;5.23;3.10;;;30.10;99.90;;;;;;5043883;28;20288;-95
2021/07/06 01:40:31;;;;;;;3.47;2.50;;;29.60;99.90;;;;;;5041907;28;20236;-94
2021/07/06 01:43:12;;;;;;;5.30;3.00;;;29.70;99.90;;;;;;5041009;28;20288;-94
2021/07/06 01:45:46;;;;;;;3.73;2.80;;;30.10;99.90;;;;;;5041713;28;20585;-94
2021/07/06 01:48:22;;;;;;;4.13;3.03;;;30.20;99.90;;;;;;5044553;28;20223;-94
2021/07/06 01:50:58;;;;;;;4.73;2.90;;;30.30;99.90;;;;;;5026751;28;20200;-94
2021/07/06 01:53:30;;;;;;;4.90;3.07;;;30.80;99.90;;;;;;5043842;28;20205;-94
2021/07/06 01:56:05;;;;;;;4.80;3.08;;;30.90;99.90;;;;;;5041418;28;20550;-93
2021/07/06 01:58:36;;;;;;;5.07;3.22;;;30.80;99.90;;;;;;5043216;28;20724;-93
2021/07/06 02:01:07;;;;;;;5.33;3.37;;;31.00;99.90;;;;;;5043364;28;20204;-93
2021/07/06 02:03:39;;;;;;;4.17;3.20;;;30.90;99.90;;;;;;5040103;28;20204;-94
2021/07/06 02:06:10;;;;;;;4.03;2.80;;;30.90;99.90;;;;;;5040807;28;20220;-94
2021/07/06 02:08:45;;;;;;;4.00;3.00;;;30.90;99.90;;;;;;5041312;28;20242;-93
2021/07/06 02:11:20;;;;;;;4.47;3.17;;;30.80;99.90;;;;;;5021922;28;20276;-94
2021/07/06 02:13:52;;;;;;;4.55;3.20;;;30.80;99.90;;;;;;5034242;28;20235;-94
2021/07/06 02:16:25;;;;;;;5.70;3.20;;;30.70;99.90;;;;;;5041569;28;20634;-95
2021/07/06 02:18:57;;;;;;;3.93;3.10;;;30.30;99.90;;;;;;5042558;28;20220;-94
2021/07/06 02:21:29;;;;;;;4.30;3.20;;;30.10;99.90;;;;;;5041171;28;20225;-95
2021/07/06 02:24:04;;;;;;;4.37;3.13;;;30.30;99.90;;;;;;5040628;28;20287;-95
2021/07/06 02:26:39;;;;;;;3.90;3.10;;;30.40;99.90;;;;;;5020392;28;20217;-94
2021/07/06 02:29:25;;;;;;;6.43;3.50;;;30.50;99.90;;;;;;5039320;28;20219;-96
2021/07/06 02:31:57;;;;;;;3.40;3.07;;;30.20;99.90;;;;;;5040785;28;20213;-96
2021/07/06 02:34:32;;;;;;;5.37;2.90;;;30.40;99.90;;;;;;5038868;28;20267;-95
2021/07/06 02:37:11;;;;;;;4.00;3.37;;;29.80;99.90;;;;;;5043417;28;20263;-94
2021/07/06 02:39:48;;;;;;;3.70;3.00;;;28.40;99.90;;;;;;5043831;28;20209;-95
2021/07/06 02:42:23;;;;;;;4.27;3.10;;;27.50;99.90;;;;;;5042871;28;20216;-94
2021/07/06 02:47:51;;;;;;;4.10;3.10;;;26.10;99.90;;;;;;5046585;28;20208;-95
2021/07/06 02:50:27;;;;;;;4.53;3.40;;;25.60;99.90;;;;;;5044082;28;20295;-94
2021/07/06 02:53:00;;;;;;;6.40;3.33;;;24.90;99.90;;;;;;5042609;28;20253;-94
2021/07/06 02:55:34;;;;;;;4.60;3.40;;;24.60;99.90;;;;;;5044664;28;20209;-94
2021/07/06 02:58:23;;;;;;;4.43;3.23;;;24.30;99.90;;;;;;5043779;28;20207;-94
2021/07/06 03:00:55;;;;;;;5.17;3.63;;;24.10;99.90;;;;;;5041243;28;20254;-94
2021/07/06 03:03:37;;;;;;;5.50;3.60;;;23.70;99.90;;;;;;5044188;28;20209;-93
2021/07/06 03:06:12;;;;;;;6.27;3.23;;;23.60;99.90;;;;;;5044491;28;20295;-94
2021/07/06 03:08:44;;;;;;;6.10;3.40;;;23.60;99.90;;;;;;5028285;28;20240;-95
2021/07/06 03:11:21;;;;;;;4.27;3.20;;;23.60;99.90;;;;;;5043166;28;20212;-96
2021/07/06 03:14:01;;;;;;;5.03;3.17;;;23.50;99.90;;;;;;5043004;28;20679;-96
2021/07/06 03:16:33;;;;;;;5.70;3.57;;;23.30;99.90;;;;;;5044692;28;20257;-96
2021/07/06 03:19:13;;;;;;;5.20;3.17;;;23.30;99.90;;;;;;5031163;28;20213;-95
2021/07/06 03:21:51;;;;;;;4.33;3.63;;;23.20;99.90;;;;;;5053873;28;20189;-96
2021/07/06 03:24:28;;;;;;;4.93;3.50;;;23.10;99.90;;;;;;5057375;28;20240;-95
2021/07/06 03:27:07;;;;;;;4.97;3.37;;;23.00;99.90;;;;;;5056624;28;20196;-96
2021/07/06 03:30:11;;;;;;;6.40;3.70;;;23.00;99.90;;;;;;5032682;28;20205;-96
2021/07/06 03:32:47;;;;;;;7.00;3.30;;;22.80;99.90;;;;;;5028862;28;20641;-95
2021/07/06 03:35:28;;;;;;;5.93;3.90;;;22.70;99.90;;;;;;5018486;28;20197;-96
2021/07/06 03:38:01;;;;;;;4.30;3.30;;;22.60;99.90;;;;;;5036912;28;20212;-96
2021/07/06 03:40:38;;;;;;;4.77;3.50;;;22.60;99.90;;;;;;5036718;28;20205;-96
2021/07/06 03:43:13;;;;;;;5.00;3.50;;;22.50;99.90;;;;;;5032739;28;20181;-95
2021/07/06 03:45:48;;;;;;;6.10;3.30;;;22.40;99.90;;;;;;5036766;28;20227;-96
2021/07/06 03:48:23;;;;;;;6.07;4.00;;;22.20;99.90;;;;;;5036415;28;20193;-95
2021/07/06 03:50:55;;;;;;;7.33;3.63;;;22.10;99.90;;;;;;5033691;28;20198;-95
2021/07/06 03:53:28;;;;;;;4.27;3.40;;;22.00;99.90;;;;;;5028549;28;20208;-95
2021/07/06 03:56:07;;;;;;;5.33;3.40;;;21.80;99.90;;;;;;5025312;28;20216;-95
2021/07/06 03:58:41;;;;;;;6.17;3.40;;;21.80;99.90;;;;;;5023504;28;20240;-95
2021/07/06 04:01:15;;;;;;;5.97;3.50;;;21.70;99.90;;;;;;5023071;28;20240;-95
2021/07/06 04:06:35;;;;;;;5.97;3.80;;;21.50;99.90;;;;;;5021263;28;20241;-96
2021/07/06 04:09:07;;;;;;;6.90;4.07;;;21.40;99.90;;;;;;5004584;28;20271;-95
2021/07/06 04:11:40;;;;;;;6.47;3.83;;;21.30;99.90;;;;;;5021580;28;20324;-96
2021/07/06 04:14:13;;;;;;;3.97;3.27;;;21.20;99.90;;;;;;5006631;28;20231;-96
2021/07/06 04:17:04;;;;;;;6.23;3.90;;;21.10;99.90;;;;;;5023068;28;20209;-94
2021/07/06 04:19:53;;;;;;;3.97;3.43;;;21.00;99.90;;;;;;5024183;28;20282;-96
2021/07/06 04:22:31;;;;;;;7.07;3.70;;;21.00;99.90;;;;;;5023950;28;20225;-95
2021/07/06 04:25:02;;;;;;;4.80;3.70;;;20.90;99.90;;;;;;5007560;28;20228;-94
2021/07/06 04:27:38;;;;;;;5.90;3.67;;;20.80;99.90;;;;;;5022660;28;20267;-94
2021/07/06 04:30:17;;;;;;;5.57;4.03;;;20.80;99.90;;;;;;5025367;28;20247;-95
2021/07/06 04:32:53;;;;;;;5.13;3.40;;;20.70;99.90;;;;;;5040524;28;20212;-95
2021/07/06 04:35:34;;;;;;;4.27;3.03;;;20.80;99.90;;;;;;5024565;28;20638;-95
2021/07/06 04:38:10;;;;;;;5.60;3.73;;;20.60;99.90;;;;;;5030062;28;20646;-95
2021/07/06 04:40:51;;;;;;;6.90;3.40;;;20.50;99.90;;;;;;5019472;28;20288;-96
2021/07/06 04:43:25;;;;;;;5.97;4.17;;;20.40;99.90;;;;;;5037184;28;20213;-96
2021/07/06 04:45:59;;;;;;;5.83;3.67;;;20.30;99.90;;;;;;5045621;28;20225;-96
2021/07/06 04:51:17;;;;;;;6.20;3.90;;;20.20;99.90;;;;;;5042662;28;20212;-96
2021/07/06 04:53:51;;;;;;;4.60;3.80;;;20.20;99.90;;;;;;5044267;28;20209;-96
2021/07/06 04:56:26;;;;;;;5.73;4.30;;;20.10;99.90;;;;;;5045642;28;20259;-96
2021/07/06 05:01:46;;;;;;;13.27;10.50;;;20.10;99.90;;;;;;5041989;28;20205;-96
2021/07/06 05:04:20;;;;;;;19.37;13.50;;;20.10;99.90;;;;;;5027241;28;20223;-96
2021/07/06 05:07:01;;;;;;;9.93;7.30;;;20.10;99.90;;;;;;5044478;28;20241;-95
2021/07/06 05:09:36;;;;;;;13.10;5.77;;;20.00;99.90;;;;;;5045562;28;20204;-95
2021/07/06 05:12:14;;;;;;;10.10;5.37;;;19.90;99.90;;;;;;5043623;28;20267;-96
2021/07/06 05:14:59;;;;;;;6.53;4.33;;;19.80;99.90;;;;;;5043931;28;20227;-96
2021/07/06 05:17:32;;;;;;;8.53;4.57;;;19.70;99.90;;;;;;5029351;28;20216;-94
2021/07/06 05:20:11;;;;;;;5.50;3.97;;;19.60;99.90;;;;;;5058072;28;20209;-95
2021/07/06 05:22:46;;;;;;;5.03;4.17;;;19.60;99.90;;;;;;5053854;28;20611;-95
2021/07/06 05:25:21;;;;;;;8.17;4.77;;;19.50;99.90;;;;;;5047735;28;20288;-95
2021/07/06 05:28:19;;;;;;;6.43;4.70;;;19.50;99.90;;;;;;5049979;28;20209;-95
2021/07/06 05:31:01;;;;;;;10.77;5.00;;;19.40;99.90;;;;;;5031806;28;20216;-96
2021/07/06 05:33:41;;;;;;;6.07;4.87;;;19.40;99.90;;;;;;5048711;28;20610;-94
2021/07/06 05:36:19;;;;;;;6.87;5.30;;;19.40;99.90;;;;;;4708387;28;9999902;-95
2021/07/06 05:39:08;;;;;;;7.33;4.90;;;19.30;99.90;;;;;;5023681;28;20201;-95
2021/07/06 05:41:41;;;;;;;8.50;4.93;;;19.10;99.90;;;;;;5037052;28;20197;-95
2021/07/06 05:44:17;;;;;;;6.07;4.67;;;19.00;99.90;;;;;;5039365;28;20197;-95
2021/07/06 05:46:54;;;;;;;9.67;5.20;;;19.00;99.90;;;;;;5037626;28;20264;-96
2021/07/06 05:49:33;;;;;;;7.60;5.53;;;19.00;99.90;;;;;;5038593;28;20212;-95
2021/07/06 05:52:11;;;;;;;7.10;5.40;;;19.00;99.90;;;;;;5039330;28;20208;-95
2021/07/06 05:54:48;;;;;;;8.60;5.10;;;18.90;99.90;;;;;;5046747;28;20209;-96
2021/07/06 05:57:29;;;;;;;6.80;5.30;;;18.90;99.90;;;;;;5046471;28;20239;-96
2021/07/06 06:00:09;;;;;;;6.50;5.77;;;18.80;99.90;;;;;;5043909;28;20233;-96
2021/07/06 06:02:42;;;;;;;8.53;5.83;;;18.90;99.90;;;;;;5043889;28;20209;-95
2021/07/06 06:05:15;;;;;;;9.00;6.53;;;18.80;99.90;;;;;;5045208;28;20219;-96
2021/07/06 06:07:50;;;;;;;8.50;6.00;;;18.80;99.90;;;;;;5043800;28;20239;-95
2021/07/06 06:10:22;;;;;;;7.80;6.00;;;18.70;99.90;;;;;;5043358;28;20216;-95
2021/07/06 06:12:58;;;;;;;8.03;6.23;;;18.70;99.90;;;;;;5043394;28;20209;-95
2021/07/06 06:15:30;;;;;;;6.60;5.80;;;18.70;99.90;;;;;;5061083;28;20212;-96
2021/07/06 06:18:05;;;;;;;8.07;5.60;;;18.70;99.90;;;;;;5065072;28;20204;-95
2021/07/06 06:20:43;;;;;;;7.73;5.93;;;18.60;99.90;;;;;;5064384;28;20200;-95
2021/07/06 06:23:34;;;;;;;8.50;6.17;;;18.60;99.90;;;;;;5059489;28;20212;-96
2021/07/06 06:26:11;;;;;;;8.43;5.70;;;18.50;99.90;;;;;;5035207;28;20233;-95
2021/07/06 06:28:45;;;;;;;7.80;5.27;;;18.50;99.90;;;;;;5027430;28;20268;-94
2021/07/06 06:34:23;;;;;;;8.80;5.30;;;18.40;99.90;;;;;;5027578;28;20205;-95
2021/07/06 06:37:01;;;;;;;5.87;5.27;;;18.40;99.90;;;;;;5008612;28;20214;-95
2021/07/06 06:39:41;;;;;;;8.53;5.80;;;18.40;99.90;;;;;;5031016;28;20295;-96
2021/07/06 06:42:14;;;;;;;6.60;5.37;;;18.30;99.90;;;;;;5041708;28;20232;-96
2021/07/06 06:44:45;;;;;;;7.20;5.40;;;18.30;99.90;;;;;;5041873;28;20205;-96
2021/07/06 06:47:18;;;;;;;5.90;5.30;;;18.30;99.90;;;;;;5026047;28;20228;-94
2021/07/06 06:49:50;;;;;;;6.80;5.60;;;18.20;99.90;;;;;;5044777;28;20205;-96
2021/07/06 06:52:26;;;;;;;5.77;5.17;;;18.20;99.90;;;;;;5043231;28;20229;-96
2021/07/06 06:55:26;;;;;;;6.83;5.10;;;18.10;99.90;;;;;;5043350;28;20205;-94
2021/07/06 06:57:57;;;;;;;7.63;5.27;;;18.10;99.90;;;;;;5042862;28;20217;-94
2021/07/06 07:00:47;;;;;;;6.67;5.47;;;18.20;99.90;;;;;;5047738;28;20201;-94
2021/07/06 07:03:26;;;;;;;7.87;5.57;;;18.10;99.90;;;;;;5028928;28;20217;-95
2021/07/06 07:06:25;;;;;;;6.97;5.67;;;18.00;99.90;;;;;;5042786;28;20300;-95
2021/07/06 07:08:59;;;;;;;11.60;5.33;;;18.00;99.90;;;;;;5042083;28;20234;-95
2021/07/06 07:11:58;;;;;;;11.40;5.60;;;18.00;99.90;;;;;;5043091;28;20273;-96
2021/07/06 07:14:29;;;;;;;7.50;5.27;;;18.00;99.90;;;;;;5042365;28;20227;-96
2021/07/06 07:17:09;;;;;;;7.27;5.20;;;18.00;99.90;;;;;;5045107;28;20221;-95
2021/07/06 07:19:42;;;;;;;7.40;5.30;;;17.90;99.90;;;;;;5044031;28;20239;-95
2021/07/06 07:22:19;;;;;;;8.30;5.40;;;17.90;99.90;;;;;;5042790;28;20209;-95
2021/07/06 07:24:51;;;;;;;5.87;5.23;;;17.90;99.90;;;;;;5043770;28;20283;-95
2021/07/06 07:27:38;;;;;;;7.87;5.80;;;17.80;99.90;;;;;;5042787;28;20232;-95
2021/07/06 07:30:17;;;;;;;9.97;5.83;;;17.80;99.90;;;;;;5041308;28;20204;-95
2021/07/06 07:32:51;;;;;;;8.37;5.77;;;17.80;99.90;;;;;;5060885;28;20204;-95
2021/07/06 07:35:26;;;;;;;7.17;5.93;;;17.70;99.90;;;;;;5063073;28;20208;-96
2021/07/06 07:37:58;;;;;;;7.37;5.97;;;17.70;99.90;;;;;;5050080;28;20243;-94
2021/07/06 07:40:31;;;;;;;6.20;5.53;;;17.70;99.90;;;;;;5039269;28;20333;-94
2021/07/06 07:43:08;;;;;;;7.00;5.67;;;17.70;99.90;;;;;;5024326;28;20299;-94
2021/07/06 07:45:39;;;;;;;6.83;5.17;;;17.60;99.90;;;;;;5042202;28;20231;-94
2021/07/06 07:48:10;;;;;;;6.27;5.67;;;17.70;99.90;;;;;;5041941;28;20296;-94
2021/07/06 07:50:44;;;;;;;5.90;5.20;;;17.60;99.90;;;;;;5039322;28;20272;-94
2021/07/06 07:53:16;;;;;;;9.80;5.70;;;17.60;99.90;;;;;;5039814;28;20278;-94
2021/07/06 07:55:50;;;;;;;6.93;5.13;;;17.60;99.90;;;;;;5022647;28;20297;-94
2021/07/06 07:58:28;;;;;;;5.93;5.00;;;17.60;99.90;;;;;;5025224;28;20219;-94
2021/07/06 08:01:01;;;;;;;5.67;5.03;;;17.50;99.90;;;;;;5058894;28;20260;-95
2021/07/06 08:03:40;;;;;;;7.63;5.47;;;17.50;99.90;;;;;;5053892;28;20206;-95
2021/07/06 08:06:14;;;;;;;6.00;5.10;;;17.50;99.90;;;;;;5055106;28;20208;-95
2021/07/06 08:08:47;;;;;;;6.17;4.43;;;17.50;99.90;;;;;;5056265;28;20263;-94
2021/07/06 08:11:20;;;;;;;5.00;4.37;;;17.40;99.90;;;;;;5033445;28;20205;-95
2021/07/06 08:14:00;;;;;;;6.93;4.90;;;17.40;99.90;;;;;;5033111;28;20232;-95
2021/07/06 08:16:33;;;;;;;6.23;4.40;;;17.40;99.90;;;;;;5065385;28;20290;-95
2021/07/06 08:19:08;;;;;;;5.70;4.93;;;17.30;99.90;;;;;;5061526;28;20345;-94
2021/07/06 08:24:24;;;;;;;6.00;5.00;;;17.30;99.90;;;;;;5027351;28;20209;-95
2021/07/06 08:26:59;;;;;;;5.10;4.40;;;17.20;99.90;;;;;;5027252;28;20244;-95
2021/07/06 08:29:41;;;;;;;6.63;5.00;;;17.20;99.90;;;;;;5027295;28;20292;-94
2021/07/06 08:32:17;;;;;;;6.73;4.80;;;17.10;99.90;;;;;;5023500;28;20296;-93
2021/07/06 08:34:51;;;;;;;5.97;4.30;;;17.00;99.90;;;;;;5024230;28;20205;-94
2021/07/06 08:37:23;;;;;;;7.70;4.70;;;17.00;99.90;;;;;;5024491;28;20626;-93
2021/07/06 08:40:03;;;;;;;7.70;4.33;;;17.00;99.90;;;;;;5008147;28;20209;-94
2021/07/06 08:42:35;;;;;;;7.30;4.33;;;16.90;99.90;;;;;;5023529;28;20233;-93
2021/07/06 08:45:20;;;;;;;4.77;4.30;;;16.90;99.90;;;;;;5024593;28;20216;-93
2021/07/06 08:47:58;;;;;;;7.57;4.37;;;16.90;99.90;;;;;;5008323;28;20237;-93
2021/07/06 08:50:35;;;;;;;4.43;3.97;;;16.90;99.90;;;;;;5026972;28;20236;-93
2021/07/06 08:53:08;;;;;;;6.70;3.83;;;16.90;99.90;;;;;;5029784;28;20292;-94
2021/07/06 08:55:43;;;;;;;4.33;3.93;;;16.80;99.90;;;;;;5038879;28;20219;-93
2021/07/06 08:58:24;;;;;;;7.57;4.40;;;16.80;99.90;;;;;;5052881;28;20240;-93
2021/07/06 09:01:03;;;;;;;6.27;4.27;;;16.80;99.90;;;;;;5057104;28;20210;-94
2021/07/06 09:04:04;;;;;;;4.83;3.60;;;16.70;99.90;;;;;;5057935;28;20193;-94
2021/07/06 09:06:56;;;;;;;4.33;3.60;;;16.70;99.90;;;;;;4700650;28;9999716;-96
2021/07/06 09:09:31;;;;;;;5.60;3.40;;;16.60;99.90;;;;;;5028128;28;20193;-95
2021/07/06 09:12:08;;;;;;;6.60;3.70;;;16.60;99.90;;;;;;5052376;28;20200;-94
2021/07/06 09:14:44;;;;;;;8.23;4.07;;;16.50;99.90;;;;;;5046958;28;20208;-95
2021/07/06 09:17:26;;;;;;;6.03;3.60;;;16.50;99.90;;;;;;5028322;28;20208;-95
2021/07/06 09:20:15;;;;;;;5.53;3.80;;;16.40;99.90;;;;;;5045150;28;20243;-96
2021/07/06 09:22:55;;;;;;;5.43;3.57;;;16.40;99.90;;;;;;5044854;28;20236;-95
2021/07/06 09:25:29;;;;;;;4.93;3.20;;;16.30;99.90;;;;;;5027118;28;20211;-95
2021/07/06 09:28:26;;;;;;;4.07;3.43;;;16.30;99.90;;;;;;5044048;28;20258;-95
2021/07/06 09:31:01;;;;;;;4.67;3.70;;;16.30;99.90;;;;;;5043312;28;20217;-94
2021/07/06 09:33:56;;;;;;;5.23;3.80;;;16.20;99.90;;;;;;5029273;28;20211;-96
2021/07/06 09:37:09;;;;;;;5.63;3.83;;;16.10;99.90;;;;;;5042784;28;20225;-94
2021/07/06 09:39:48;;;;;;;4.10;3.17;;;16.10;99.90;;;;;;5045491;28;20303;-94
2021/07/06 09:42:35;;;;;;;4.10;3.30;;;16.10;99.90;;;;;;5029578;28;20221;-93
2021/07/06 09:45:12;;;;;;;6.43;3.47;;;16.10;99.90;;;;;;5045185;28;20197;-94
2021/07/06 09:50:53;;;;;;;5.30;3.57;;;16.10;99.90;;;;;;5042200;28;20213;-94
2021/07/06 09:53:31;;;;;;;6.37;4.17;;;16.10;99.90;;;;;;5042790;28;20308;-94
2021/07/06 09:56:12;;;;;;;3.90;3.53;;;16.00;99.90;;;;;;5043198;28;20200;-93
2021/07/06 09:58:57;;;;;;;6.87;4.00;;;16.00;99.90;;;;;;5044031;28;20208;-94
2021/07/06 10:01:35;;;;;;;4.67;3.67;;;16.00;99.90;;;;;;5041106;28;20240;-94
2021/07/06 10:04:10;;;;;;;8.73;3.93;;;15.90;99.90;;;;;;5043084;28;20289;-94
2021/07/06 10:06:45;;;;;;;7.17;3.83;;;15.80;99.90;;;;;;5042761;28;20634;-94
2021/07/06 10:09:22;;;;;;;6.43;3.70;;;15.80;99.90;;;;;;5044465;28;20252;-94
2021/07/06 10:11:54;;;;;;;6.13;3.77;;;15.80;99.90;;;;;;5048184;28;20192;-94
2021/07/06 10:14:27;;;;;;;6.47;3.63;;;15.80;99.90;;;;;;5041127;28;20225;-94
2021/07/06 10:19:46;;;;;;;4.60;3.77;;;15.60;99.90;;;;;;5022193;28;20214;-95
2021/07/06 10:22:26;;;;;;;5.40;3.73;;;15.60;99.90;;;;;;5024300;28;20224;-95
2021/07/06 10:25:17;;;;;;;7.13;4.20;;;15.60;99.90;;;;;;5007350;28;20217;-94
2021/07/06 10:27:56;;;;;;;5.50;4.20;;;15.70;99.90;;;;;;5025918;28;20325;-95
2021/07/06 10:30:35;;;;;;;4.50;3.77;;;15.60;99.90;;;;;;5035345;28;20182;-95
2021/07/06 10:36:07;;;;;;;6.27;4.23;;;15.70;99.90;;;;;;5032769;28;20210;-95
2021/07/06 10:38:56;;;;;;;6.37;4.17;;;15.60;99.90;;;;;;5022887;28;20216;-94
2021/07/06 10:41:53;;;;;;;5.40;3.67;;;15.50;99.90;;;;;;5023284;28;20281;-94
2021/07/06 10:44:39;;;;;;;6.90;3.80;;;15.50;99.90;;;;;;5018085;28;20309;-93
2021/07/06 10:47:38;;;;;;;4.90;3.70;;;15.50;99.90;;;;;;5017624;28;20267;-92
2021/07/06 10:50:46;;;;;;;6.97;4.10;;;15.50;99.90;;;;;;5041423;28;20240;-95
2021/07/06 10:56:14;;;;;;;5.23;3.70;;;15.50;99.90;;;;;;5040786;28;20224;-94
2021/07/06 10:59:06;;;;;;;6.80;4.40;;;15.50;99.90;;;;;;5042453;28;20620;-93
2021/07/06 11:02:04;;;;;;;5.27;4.07;;;15.50;99.90;;;;;;5024332;28;20576;-94
2021/07/06 11:05:11;;;;;;;7.67;4.30;;;15.40;99.90;;;;;;5042457;28;20205;-93
2021/07/06 11:08:10;;;;;;;7.00;4.40;;;15.40;99.90;;;;;;5043418;28;20219;-94
2021/07/06 11:14:08;;;;;;;7.50;4.40;;;15.30;99.90;;;;;;5047264;28;20278;-95
2021/07/06 11:17:09;;;;;;;5.63;4.33;;;15.20;99.90;;;;;;5033930;28;20226;-94
2021/07/06 11:19:43;;;;;;;6.57;4.30;;;15.20;99.90;;;;;;5039434;28;20209;-95
2021/07/06 11:22:25;;;;;;;5.30;4.47;;;15.20;99.90;;;;;;5055640;28;20201;-95
2021/07/06 11:25:05;;;;;;;6.77;4.00;;;15.20;99.90;;;;;;5049701;28;20219;-95
2021/07/06 11:33:52;;;;;;;6.00;4.47;;;15.10;99.90;;;;;;5046946;28;20209;-94
2021/07/06 11:36:33;;;;;;;7.10;4.07;;;15.00;99.90;;;;;;5029445;28;20207;-94
2021/07/06 11:39:12;;;;;;;5.87;4.33;;;15.00;99.90;;;;;;5045055;28;20628;-93
2021/07/06 11:41:54;;;;;;;4.33;3.93;;;15.00;99.90;;;;;;5022954;28;20216;-93
2021/07/06 11:44:28;;;;;;;7.47;4.40;;;15.00;99.90;;;;;;5040669;28;20215;-94
2021/07/06 11:47:16;;;;;;;7.20;4.23;;;15.00;99.90;;;;;;5023697;28;20595;-93
2021/07/06 11:49:54;;;;;;;8.17;4.17;;;15.10;99.90;;;;;;5035053;28;20267;-93
2021/07/06 11:52:26;;;;;;;6.73;4.10;;;15.00;99.90;;;;;;5041469;28;20208;-93
2021/07/06 11:54:58;;;;;;;6.13;4.57;;;15.00;99.90;;;;;;5039903;28;20209;-93
2021/07/06 11:57:30;;;;;;;4.50;4.03;;;15.10;99.90;;;;;;5040180;28;20220;-93
2021/07/06 12:00:13;;;;;;;4.87;4.13;;;15.10;99.90;;;;;;5042001;28;20213;-92
2021/07/06 12:02:44;;;;;;;7.23;4.57;;;15.20;99.90;;;;;;5044204;28;20217;-93
2021/07/06 12:05:20;;;;;;;5.67;4.23;;;15.20;99.90;;;;;;5040437;28;20295;-93
2021/07/06 12:08:01;;;;;;;7.03;4.50;;;15.30;99.90;;;;;;5040269;28;20208;-94
2021/07/06 12:10:34;;;;;;;6.50;4.07;;;15.30;99.90;;;;;;5040807;28;20259;-95
2021/07/06 12:13:06;;;;;;;6.60;4.60;;;15.40;99.90;;;;;;5025262;28;20212;-95
2021/07/06 12:15:44;;;;;;;6.40;4.40;;;15.50;99.90;;;;;;5041459;28;20242;-95
2021/07/06 12:18:18;;;;;;;6.00;4.40;;;15.50;99.90;;;;;;5041435;28;20299;-95
2021/07/06 12:21:14;;;;;;;7.07;4.20;;;15.60;99.90;;;;;;5023267;28;20240;-95
2021/07/06 12:23:52;;;;;;;4.97;4.23;;;15.60;99.90;;;;;;5045325;28;20205;-95
2021/07/06 12:26:31;;;;;;;7.27;4.70;;;15.60;99.90;;;;;;5043205;28;20197;-94
2021/07/06 12:29:06;;;;;;;6.23;4.30;;;15.70;99.90;;;;;;5027329;28;20314;-95
2021/07/06 12:31:39;;;;;;;5.03;3.80;;;15.80;99.90;;;;;;5042748;28;20267;-95
2021/07/06 12:34:13;;;;;;;5.63;5.03;;;15.80;99.90;;;;;;5045360;28;20201;-95
2021/07/06 12:39:49;;;;;;;5.47;4.30;;;16.00;99.90;;;;;;5042236;28;20670;-95
2021/07/06 12:42:23;;;;;;;6.17;4.40;;;16.10;99.90;;;;;;5024496;28;20274;-95
2021/07/06 12:45:08;;;;;;;7.87;4.43;;;16.20;99.90;;;;;;5042792;28;20258;-92
2021/07/06 12:47:45;;;;;;;6.13;4.90;;;16.20;99.90;;;;;;5047320;28;20205;-93
2021/07/06 12:50:20;;;;;;;8.07;4.57;;;16.20;99.90;;;;;;5050186;28;20220;-94
2021/07/06 12:53:08;;;;;;;6.17;4.50;;;16.30;99.90;;;;;;5056331;28;20204;-94
2021/07/06 12:55:47;;;;;;;7.73;4.97;;;16.40;99.90;;;;;;5056287;28;20197;-94
2021/07/06 12:58:18;;;;;;;8.47;4.97;;;16.40;99.90;;;;;;5056227;28;20215;-91
2021/07/06 13:00:59;;;;;;;7.20;4.83;;;16.40;99.90;;;;;;5053504;28;20276;-93
2021/07/06 13:03:38;;;;;;;7.50;4.63;;;16.50;99.90;;;;;;5051562;28;20214;-94
2021/07/06 13:06:23;;;;;;;6.77;4.80;;;16.60;99.90;;;;;;5051507;28;20204;-94
2021/07/06 13:09:12;;;;;;;6.33;4.27;;;16.60;99.90;;;;;;5041141;28;20212;-93
2021/07/06 13:11:44;;;;;;;6.90;4.60;;;16.50;99.90;;;;;;5043718;28;20223;-95
2021/07/06 13:14:29;;;;;;;7.40;5.10;;;16.50;99.90;;;;;;5044282;28;20212;-96
2021/07/06 13:17:27;;;;;;;7.20;4.83;;;16.40;99.90;;;;;;5046574;28;20247;-95
2021/07/06 13:20:11;;;;;;;5.13;4.63;;;16.40;99.90;;;;;;5047627;28;20216;-95
2021/07/06 13:26:00;;;;;;;8.17;4.97;;;16.40;99.90;;;;;;5046720;28;20208;-95
2021/07/06 13:28:37;;;;;;;6.30;4.90;;;16.40;99.90;;;;;;5045948;28;20266;-95
2021/07/06 13:31:09;;;;;;;9.80;5.10;;;16.40;99.90;;;;;;5047712;28;20240;-95
2021/07/06 13:33:53;;;;;;;7.10;5.40;;;16.40;99.90;;;;;;5032529;28;20215;-95
2021/07/06 13:36:36;;;;;;;7.00;5.03;;;16.40;99.90;;;;;;5046806;28;20217;-95
2021/07/06 13:39:10;;;;;;;10.37;5.40;;;16.50;99.90;;;;;;5044702;28;20236;-96
2021/07/06 13:41:44;;;;;;;7.10;5.20;;;16.40;99.90;;;;;;5044010;28;20212;-96
2021/07/06 13:47:06;;;;;;;7.10;5.43;;;16.50;99.90;;;;;;5044123;28;20209;-94
2021/07/06 13:49:40;;;;;;;8.07;5.00;;;16.50;99.90;;;;;;5026585;28;20228;-95
2021/07/06 13:52:14;;;;;;;7.40;5.40;;;16.60;99.90;;;;;;5045107;28;20286;-95
2021/07/06 13:54:48;;;;;;;8.50;5.40;;;16.60;99.90;;;;;;5043885;28;20695;-95
2021/07/06 14:00:35;;;;;;;9.07;5.73;;;16.80;99.90;;;;;;5042918;28;20227;-94
2021/07/06 14:03:29;;;;;;;9.40;4.90;;;16.80;99.90;;;;;;5040715;28;20211;-94
2021/07/06 14:06:02;;;;;;;9.37;4.70;;;16.90;99.90;;;;;;5030880;28;20225;-95
2021/07/06 14:08:39;;;;;;;7.27;4.70;;;16.90;99.90;;;;;;5026054;28;20325;-95
2021/07/06 14:11:13;;;;;;;10.00;5.07;;;17.00;99.90;;;;;;5042245;28;20228;-95
2021/07/06 14:14:01;;;;;;;8.33;5.40;;;16.90;99.90;;;;;;5046618;28;20654;-96
2021/07/06 14:16:40;;;;;;;9.50;5.97;;;17.00;99.90;;;;;;5027821;28;20208;-96
2021/07/06 14:19:12;;;;;;;10.77;6.27;;;17.10;99.90;;;;;;5044848;28;20272;-96
2021/07/06 14:21:49;;;;;;;10.07;5.97;;;17.20;99.90;;;;;;5045327;28;20205;-96
2021/07/06 14:24:28;;;;;;;8.00;5.90;;;17.00;99.90;;;;;;5068145;28;20215;-96
2021/07/06 14:27:00;;;;;;;7.57;5.50;;;17.20;99.90;;;;;;5059081;28;20217;-96
2021/07/06 14:29:35;;;;;;;7.80;5.43;;;17.20;99.90;;;;;;5050791;28;20575;-96
2021/07/06 14:32:11;;;;;;;8.70;5.87;;;17.00;99.90;;;;;;5053610;28;20224;-95
2021/07/06 14:34:54;;;;;;;9.00;5.77;;;17.00;99.90;;;;;;5041897;28;20207;-96
2021/07/06 14:37:28;;;;;;;8.67;6.00;;;17.10;99.90;;;;;;5057222;28;20241;-94